createdAt,value
2022-09-25T00:02:09.911Z,45.38
2022-09-25T00:04:37.159Z,44.50
2022-09-25T00:07:04.323Z,43.85
2022-09-25T00:09:31.467Z,47.53
2022-09-25T00:11:58.672Z,48.40
2022-09-25T00:14:25.845Z,50.33
2022-09-25T00:16:53.043Z,47.03
2022-09-25T00:19:40.006Z,48.30
2022-09-25T00:22:07.219Z,45.70
2022-09-25T00:24:34.939Z,47.03
2022-09-25T00:27:02.113Z,44.90
2022-09-25T00:29:30.965Z,45.45
2022-09-25T00:31:58.096Z,45.47
2022-09-25T00:34:25.345Z,45.10
2022-09-25T00:36:52.484Z,45.17
2022-09-25T00:39:19.625Z,46.38
2022-09-25T00:41:46.793Z,45.65
2022-09-25T00:44:32.421Z,48.92
2022-09-25T00:46:59.615Z,49.35
2022-09-25T00:49:26.794Z,49.08
2022-09-25T00:51:55.291Z,51.20
2022-09-25T00:54:32.494Z,49.85
2022-09-25T00:57:01.867Z,51.00
2022-09-25T00:59:30.607Z,47.47
2022-09-25T01:01:57.930Z,47.47
2022-09-25T01:04:25.062Z,47.10
2022-09-25T01:06:52.323Z,49.17
2022-09-25T01:09:19.484Z,47.20
2022-09-25T01:11:47.160Z,46.28
2022-09-25T01:14:17.414Z,45.85
2022-09-25T01:16:52.882Z,42.45
2022-09-25T01:19:20.042Z,41.38
2022-09-25T01:21:49.982Z,42.42
2022-09-25T01:24:23.475Z,42.15
2022-09-25T01:27:10.048Z,41.35
2022-09-25T01:29:41.114Z,38.50
2022-09-25T01:32:14.020Z,40.63
2022-09-25T01:34:45.975Z,39.60
2022-09-25T01:37:18.775Z,39.00
2022-09-25T01:40:09.420Z,36.97
2022-09-25T01:42:49.630Z,36.78
2022-09-25T01:45:21.222Z,37.83
2022-09-25T01:47:48.980Z,37.33
2022-09-25T01:50:26.675Z,37.67
2022-09-25T01:52:54.115Z,35.85
2022-09-25T01:55:24.323Z,36.92
2022-09-25T01:57:55.982Z,36.53
2022-09-25T02:00:23.558Z,39.65
2022-09-25T02:02:55.363Z,36.47
2022-09-25T02:05:31.977Z,36.42
2022-09-25T02:08:01.228Z,37.58
2022-09-25T02:10:32.017Z,36.05
2022-09-25T02:12:59.585Z,37.88
2022-09-25T02:15:29.213Z,37.90
2022-09-25T02:18:17.251Z,38.22
2022-09-25T02:20:45.031Z,36.35
2022-09-25T02:23:16.024Z,35.97
2022-09-25T02:26:01.287Z,36.80
2022-09-25T02:28:28.420Z,35.92
2022-09-25T02:30:55.794Z,37.72
2022-09-25T02:33:23.039Z,37.20
2022-09-25T02:35:50.170Z,36.45
2022-09-25T02:38:17.320Z,36.90
2022-09-25T02:40:46.474Z,38.92
2022-09-25T02:43:32.472Z,39.33
2022-09-25T02:46:04.480Z,37.10
2022-09-25T02:48:47.897Z,36.17
2022-09-25T02:51:19.583Z,39.78
2022-09-25T02:53:51.490Z,39.30
2022-09-25T02:56:22.148Z,35.95
2022-09-25T02:58:53.143Z,39.17
2022-09-25T03:01:21.631Z,39.10
2022-09-25T03:03:49.775Z,38.45
2022-09-25T03:06:16.919Z,39.55
2022-09-25T03:08:49.286Z,40.65
2022-09-25T03:11:17.697Z,38.88
2022-09-25T03:13:44.966Z,35.38
2022-09-25T03:16:18.815Z,37.83
2022-09-25T03:18:46.343Z,36.42
2022-09-25T03:21:13.481Z,35.33
2022-09-25T03:23:40.883Z,33.75
2022-09-25T03:26:08.207Z,34.47
2022-09-25T03:28:35.496Z,33.45
2022-09-25T03:31:03.517Z,33.72
2022-09-25T03:33:31.500Z,33.10
2022-09-25T03:36:02.436Z,35.67
2022-09-25T03:38:29.689Z,36.72
2022-09-25T03:40:56.915Z,35.83
2022-09-25T03:43:24.163Z,35.80
2022-09-25T03:45:51.421Z,36.03
2022-09-25T03:48:18.624Z,36.72
2022-09-25T03:50:46.274Z,37.97
2022-09-25T03:53:13.853Z,36.70
2022-09-25T03:55:41.027Z,36.17
2022-09-25T03:58:08.160Z,36.92
2022-09-25T04:00:35.333Z,32.20
2022-09-25T04:03:02.475Z,31.63
2022-09-25T04:05:29.803Z,33.15
2022-09-25T04:07:57.363Z,33.83
2022-09-25T04:10:24.494Z,36.45
2022-09-25T04:12:54.398Z,40.38
2022-09-25T04:15:25.209Z,39.47
2022-09-25T04:17:55.648Z,39.63
2022-09-25T04:20:22.785Z,38.33
2022-09-25T04:22:50.145Z,36.80
2022-09-25T04:25:22.065Z,35.85
2022-09-25T04:27:51.621Z,37.10
2022-09-25T04:30:18.785Z,39.00
2022-09-25T04:33:04.533Z,34.63
2022-09-25T04:35:31.681Z,37.53
2022-09-25T04:37:58.829Z,36.83
2022-09-25T04:40:26.046Z,36.50
2022-09-25T04:42:57.409Z,37.30
2022-09-25T04:45:26.731Z,35.65
2022-09-25T04:47:54.499Z,35.47
2022-09-25T04:50:22.037Z,34.45
2022-09-25T04:52:51.310Z,34.38
2022-09-25T04:55:18.868Z,34.95
2022-09-25T04:57:58.522Z,35.38
2022-09-25T05:00:27.406Z,33.00
2022-09-25T05:02:55.005Z,32.80
2022-09-25T05:05:22.229Z,32.42
2022-09-25T05:07:56.205Z,32.63
2022-09-25T05:10:23.897Z,31.75
2022-09-25T05:12:55.308Z,34.60
2022-09-25T05:15:22.528Z,32.40
2022-09-25T05:17:49.810Z,33.78
2022-09-25T05:20:17.244Z,32.85
2022-09-25T05:22:44.415Z,31.73
2022-09-25T05:25:11.862Z,33.17
2022-09-25T05:27:39.039Z,31.80
2022-09-25T05:30:08.933Z,31.10
2022-09-25T05:32:36.064Z,33.60
2022-09-25T05:35:03.742Z,34.33
2022-09-25T05:37:30.987Z,40.88
2022-09-25T05:39:58.129Z,49.83
2022-09-25T05:42:25.253Z,57.85
2022-09-25T05:44:52.411Z,44.28
2022-09-25T05:47:19.555Z,43.83
2022-09-25T05:49:46.689Z,44.20
2022-09-25T05:52:13.870Z,44.55
2022-09-25T05:54:41.139Z,44.00
2022-09-25T05:57:08.284Z,41.03
2022-09-25T05:59:35.466Z,43.30
2022-09-25T06:02:02.692Z,41.15
2022-09-25T06:04:30.029Z,39.05
2022-09-25T06:06:57.313Z,37.75
2022-09-25T06:09:24.461Z,39.65
2022-09-25T06:11:53.531Z,42.78
2022-09-25T06:14:20.707Z,41.30
2022-09-25T06:16:50.453Z,39.83
2022-09-25T06:19:17.767Z,36.08
2022-09-25T06:21:45.092Z,35.47
2022-09-25T06:24:12.298Z,37.10
2022-09-25T06:26:39.452Z,36.92
2022-09-25T06:29:07.961Z,36.97
2022-09-25T06:31:35.425Z,42.25
2022-09-25T06:34:02.660Z,35.13
2022-09-25T06:36:29.843Z,34.20
2022-09-25T06:38:56.994Z,30.13
2022-09-25T06:41:24.734Z,31.30
2022-09-25T06:43:52.226Z,29.92
2022-09-25T06:46:20.211Z,31.58
2022-09-25T06:49:02.919Z,30.42
2022-09-25T06:51:31.480Z,29.77
2022-09-25T06:53:58.947Z,29.33
2022-09-25T06:56:26.172Z,28.67
2022-09-25T06:58:53.347Z,27.55
2022-09-25T07:01:20.539Z,26.92
2022-09-25T07:03:49.251Z,26.48
2022-09-25T07:06:20.415Z,27.73
2022-09-25T07:08:50.399Z,24.77
2022-09-25T07:11:21.315Z,22.70
2022-09-25T07:13:55.016Z,21.65
2022-09-25T07:16:23.572Z,27.65
2022-09-25T07:18:51.444Z,41.03
2022-09-25T07:21:19.053Z,30.80
2022-09-25T07:23:48.748Z,25.75
2022-09-25T07:26:22.740Z,22.23
2022-09-25T07:28:54.838Z,21.05
2022-09-25T07:31:23.238Z,21.35
2022-09-25T07:33:50.431Z,17.30
2022-09-25T07:36:17.846Z,13.93
2022-09-25T07:38:46.213Z,14.07
2022-09-25T07:41:13.658Z,13.65
2022-09-25T07:43:43.718Z,15.32
2022-09-25T07:46:11.160Z,19.15
2022-09-25T07:48:38.365Z,22.85
2022-09-25T07:51:06.210Z,20.70
2022-09-25T07:53:33.371Z,20.85
2022-09-25T07:56:05.856Z,24.65
2022-09-25T07:58:35.446Z,24.75
2022-09-25T08:01:03.251Z,26.58
2022-09-25T08:03:30.467Z,26.88
2022-09-25T08:06:00.531Z,27.38
2022-09-25T08:08:28.043Z,29.63
2022-09-25T08:10:56.023Z,20.60
2022-09-25T08:13:23.277Z,15.52
2022-09-25T08:15:50.539Z,16.20
2022-09-25T08:18:17.759Z,16.10
2022-09-25T08:20:44.926Z,14.95
2022-09-25T08:23:12.056Z,14.27
2022-09-25T08:25:39.195Z,15.02
2022-09-25T08:28:06.474Z,15.40
2022-09-25T08:30:33.614Z,16.38
2022-09-25T08:33:00.807Z,11.40
2022-09-25T08:35:28.187Z,11.52
2022-09-25T08:37:55.346Z,10.40
2022-09-25T08:40:23.561Z,11.82
2022-09-25T08:42:50.823Z,10.40
2022-09-25T08:45:55.796Z,10.90
2022-09-25T08:48:41.519Z,8.85
2022-09-25T08:51:09.193Z,9.35
2022-09-25T08:53:36.475Z,11.95
2022-09-25T08:56:19.655Z,11.65
2022-09-25T08:58:46.816Z,10.75
2022-09-25T09:01:21.219Z,10.68
2022-09-25T09:04:09.695Z,10.25
2022-09-25T09:06:36.919Z,10.52
2022-09-25T09:09:08.607Z,10.15
2022-09-25T09:11:57.200Z,9.10
2022-09-25T09:14:24.385Z,9.10
2022-09-25T09:17:01.889Z,9.90
2022-09-25T09:19:29.053Z,9.57
2022-09-25T09:22:00.802Z,10.27
2022-09-25T09:24:32.161Z,9.40
2022-09-25T09:27:04.296Z,7.97
2022-09-25T09:29:31.549Z,9.80
2022-09-25T09:32:07.511Z,9.65
2022-09-25T09:35:04.382Z,9.43
2022-09-25T09:37:31.577Z,10.07
2022-09-25T09:40:08.544Z,10.20
2022-09-25T09:42:44.119Z,9.98
2022-09-25T09:45:21.480Z,9.60
2022-09-25T09:47:48.638Z,9.00
2022-09-25T09:50:18.569Z,9.60
2022-09-25T09:52:46.004Z,9.52
2022-09-25T09:55:25.521Z,10.00
2022-09-25T09:57:53.355Z,9.63
2022-09-25T10:00:21.189Z,9.00
2022-09-25T10:03:01.789Z,9.57
2022-09-25T10:05:33.299Z,10.45
2022-09-25T10:08:00.477Z,11.20
2022-09-25T10:10:35.559Z,11.02
2022-09-25T10:13:06.773Z,10.82
2022-09-25T10:15:38.967Z,10.18
2022-09-25T10:18:06.233Z,10.95
2022-09-25T10:20:43.999Z,12.35
2022-09-25T10:23:30.010Z,11.98
2022-09-25T10:25:57.180Z,12.43
2022-09-25T10:28:46.962Z,10.90
2022-09-25T10:31:14.217Z,10.35
2022-09-25T10:33:41.430Z,10.50
2022-09-25T10:36:08.617Z,10.40
2022-09-25T10:38:47.217Z,10.82
2022-09-25T10:41:15.359Z,10.90
2022-09-25T10:43:53.562Z,12.15
2022-09-25T10:46:55.519Z,13.52
2022-09-25T10:49:42.379Z,12.63
2022-09-25T10:52:10.434Z,13.38
2022-09-25T10:54:43.642Z,11.45
2022-09-25T10:57:34.765Z,12.18
2022-09-25T11:00:02.359Z,11.77
2022-09-25T11:02:33.380Z,11.98
2022-09-25T11:05:00.596Z,10.75
2022-09-25T11:07:27.976Z,10.48
2022-09-25T11:09:59.798Z,9.75
2022-09-25T11:12:29.458Z,10.65
2022-09-25T11:15:01.543Z,9.70
2022-09-25T11:17:32.126Z,9.77
2022-09-25T11:20:13.028Z,8.52
2022-09-25T11:22:40.226Z,8.40
2022-09-25T11:25:22.552Z,7.82
2022-09-25T11:27:53.507Z,8.32
2022-09-25T11:30:21.287Z,11.05
2022-09-25T11:32:53.506Z,8.75
2022-09-25T11:35:20.716Z,10.18
2022-09-25T11:38:06.393Z,10.65
2022-09-25T11:40:58.039Z,11.10
2022-09-25T11:43:37.766Z,9.35
2022-09-25T11:46:13.560Z,8.85
2022-09-25T11:48:50.215Z,7.47
2022-09-25T11:51:36.007Z,7.10
2022-09-25T11:54:37.550Z,6.82
2022-09-25T11:57:11.205Z,6.95
2022-09-25T11:59:43.172Z,8.55
2022-09-25T12:02:21.461Z,7.00
2022-09-25T12:04:56.113Z,8.10
2022-09-25T12:07:28.045Z,8.52
2022-09-25T12:10:04.257Z,9.85
2022-09-25T12:12:37.713Z,12.40
2022-09-25T12:15:22.857Z,7.60
2022-09-25T12:17:51.018Z,7.45
2022-09-25T12:20:24.204Z,32.00
2022-09-25T12:22:51.964Z,23.42
2022-09-25T12:25:28.419Z,9.93
2022-09-25T12:28:01.229Z,7.45
2022-09-25T12:30:41.818Z,8.23
2022-09-25T12:33:32.623Z,7.78
2022-09-25T12:36:09.029Z,6.90
2022-09-25T12:39:11.818Z,7.38
2022-09-25T12:41:41.456Z,7.18
2022-09-25T12:44:13.216Z,9.25
2022-09-25T12:46:43.415Z,9.50
2022-09-25T12:49:13.583Z,8.07
2022-09-25T12:51:47.501Z,7.63
2022-09-25T12:54:14.667Z,13.13
2022-09-25T12:56:52.134Z,15.02
2022-09-25T12:59:21.093Z,12.55
2022-09-25T13:02:00.521Z,8.85
2022-09-25T13:04:35.282Z,9.20
2022-09-25T13:07:05.247Z,9.00
2022-09-25T13:09:36.422Z,10.70
2022-09-25T13:12:05.804Z,7.88
2022-09-25T13:14:39.738Z,8.30
2022-09-25T13:17:07.358Z,12.52
2022-09-25T13:19:34.818Z,9.65
2022-09-25T13:22:22.362Z,7.13
2022-09-25T13:24:53.659Z,6.60
2022-09-25T13:27:22.611Z,5.55
2022-09-25T13:29:54.243Z,5.78
2022-09-25T13:32:25.154Z,7.30
2022-09-25T13:34:52.825Z,8.20
2022-09-25T13:37:19.977Z,7.82
2022-09-25T13:40:06.899Z,9.07
2022-09-25T13:42:38.541Z,8.70
2022-09-25T13:45:25.940Z,7.82
2022-09-25T13:48:19.473Z,8.43
2022-09-25T13:50:47.035Z,8.77
2022-09-25T13:53:24.523Z,10.63
2022-09-25T13:55:51.674Z,12.25
2022-09-25T13:58:22.415Z,11.82
2022-09-25T14:00:53.440Z,12.70
2022-09-25T14:03:31.825Z,14.40
2022-09-25T14:05:59.583Z,14.45
2022-09-25T14:08:26.966Z,13.18
2022-09-25T14:10:55.134Z,10.88
2022-09-25T14:13:23.681Z,11.40
2022-09-25T14:15:51.171Z,10.45
2022-09-25T14:18:19.655Z,10.30
2022-09-25T14:20:50.585Z,11.25
2022-09-25T14:23:26.156Z,10.57
2022-09-25T14:26:02.895Z,11.45
2022-09-25T14:28:31.249Z,11.88
2022-09-25T14:31:21.760Z,12.52
2022-09-25T14:33:58.791Z,11.18
2022-09-25T14:36:41.245Z,12.48
2022-09-25T14:39:27.090Z,12.98
2022-09-25T14:42:26.771Z,12.90
2022-09-25T14:44:54.158Z,12.52
2022-09-25T14:47:21.354Z,10.55
2022-09-25T14:49:52.101Z,11.63
2022-09-25T14:52:24.217Z,10.88
2022-09-25T14:54:51.525Z,11.82
2022-09-25T14:57:24.675Z,12.07
2022-09-25T14:59:53.742Z,12.32
2022-09-25T15:02:23.554Z,10.95
2022-09-25T15:04:51.136Z,12.30
2022-09-25T15:07:19.529Z,10.93
2022-09-25T15:09:48.261Z,11.73
2022-09-25T15:12:17.888Z,13.60
2022-09-25T15:15:14.757Z,14.10
2022-09-25T15:18:02.537Z,17.77
2022-09-25T15:20:31.069Z,21.60
2022-09-25T15:23:14.563Z,42.10
2022-09-25T15:25:46.056Z,52.35
2022-09-25T15:28:16.844Z,46.67
2022-09-25T15:30:46.471Z,41.72
2022-09-25T15:33:30.010Z,42.42
2022-09-25T15:35:57.782Z,36.13
2022-09-25T15:38:31.786Z,29.80
2022-09-25T15:40:59.081Z,32.30
2022-09-25T15:43:26.394Z,26.90
2022-09-25T15:46:20.051Z,29.17
2022-09-25T15:48:53.726Z,27.92
2022-09-25T15:51:21.616Z,26.55
2022-09-25T15:53:55.847Z,27.23
2022-09-25T15:56:23.909Z,22.85
2022-09-25T15:58:52.486Z,21.63
2022-09-25T16:01:40.176Z,26.30
2022-09-25T16:04:26.535Z,23.70
2022-09-25T16:06:53.987Z,29.33
2022-09-25T16:09:30.268Z,30.52
2022-09-25T16:12:19.335Z,31.05
2022-09-25T16:14:46.614Z,32.45
2022-09-25T16:17:24.384Z,32.88
2022-09-25T16:20:01.999Z,49.55
2022-09-25T16:22:35.852Z,46.83
2022-09-25T16:25:03.148Z,64.28
2022-09-25T16:27:34.155Z,51.53
2022-09-25T16:30:04.417Z,41.85
2022-09-25T16:32:32.317Z,45.75
2022-09-25T16:35:02.917Z,52.85
2022-09-25T16:37:34.121Z,46.25
2022-09-25T16:40:29.206Z,37.58
2022-09-25T16:42:57.254Z,39.35
2022-09-25T16:45:29.533Z,37.97
2022-09-25T16:47:58.545Z,44.45
2022-09-25T16:50:25.955Z,48.15
2022-09-25T16:52:53.211Z,53.28
2022-09-25T16:55:23.321Z,47.22
2022-09-25T16:57:51.294Z,44.40
2022-09-25T17:00:20.498Z,50.08
2022-09-25T17:02:47.939Z,47.63
2022-09-25T17:05:17.624Z,38.85
2022-09-25T17:07:45.876Z,35.28
2022-09-25T17:10:15.202Z,35.58
2022-09-25T17:12:43.025Z,39.22
2022-09-25T17:15:17.061Z,39.42
2022-09-25T17:17:44.273Z,39.10
2022-09-25T17:20:11.839Z,36.65
2022-09-25T17:22:39.274Z,36.80
2022-09-25T17:25:12.697Z,53.78
2022-09-25T17:27:39.857Z,109.35
2022-09-25T17:30:07.243Z,122.38
2022-09-25T17:32:34.379Z,110.78
2022-09-25T17:35:01.678Z,74.97
2022-09-25T17:37:29.118Z,88.35
2022-09-25T17:39:56.288Z,95.50
2022-09-25T17:42:25.683Z,78.30
2022-09-25T17:44:54.207Z,72.28
2022-09-25T17:47:22.131Z,100.43
2022-09-25T17:49:49.794Z,88.20
2022-09-25T17:52:17.402Z,73.35
2022-09-25T17:54:44.700Z,59.97
2022-09-25T17:57:12.068Z,51.13
2022-09-25T17:59:39.212Z,43.78
2022-09-25T18:02:06.902Z,42.90
2022-09-25T18:04:34.144Z,42.00
2022-09-25T18:07:01.298Z,43.90
2022-09-25T18:09:28.581Z,44.58
2022-09-25T18:11:55.924Z,47.45
2022-09-25T18:14:23.108Z,43.90
2022-09-25T18:16:50.313Z,49.13
2022-09-25T18:19:36.791Z,41.80
2022-09-25T18:22:20.620Z,75.15
2022-09-25T18:24:57.011Z,74.13
2022-09-25T18:27:25.264Z,32.72
2022-09-25T18:30:25.316Z,42.33
2022-09-25T18:33:16.662Z,46.33
2022-09-25T18:39:20.639Z,52.88
2022-09-25T18:58:26.495Z,39.78
2022-09-25T19:04:31.615Z,41.38
2022-09-25T19:06:58.937Z,65.00
2022-09-25T19:09:43.887Z,46.85
2022-09-25T19:21:17.303Z,57.38
2022-09-25T19:24:02.561Z,57.90
2022-09-25T19:26:59.818Z,67.35
2022-09-25T19:30:17.701Z,73.55
2022-09-25T19:32:59.841Z,61.33
2022-09-25T19:35:27.113Z,52.55
2022-09-25T19:38:00.971Z,58.30
2022-09-25T19:40:52.742Z,91.10
2022-09-25T19:43:24.471Z,85.40
2022-09-25T19:49:20.823Z,54.25
2022-09-25T19:51:50.852Z,35.95
2022-09-25T19:54:28.277Z,33.17
2022-09-25T20:02:46.983Z,30.38
2022-09-25T20:06:00.155Z,29.42
2022-09-25T20:08:38.588Z,27.95
2022-09-25T20:11:22.705Z,30.63
2022-09-25T20:14:04.208Z,28.08
2022-09-25T20:19:40.080Z,27.30
2022-09-25T20:22:36.903Z,22.55
2022-09-25T20:53:03.327Z,21.00
2022-09-25T21:15:32.636Z,24.17
2022-09-25T21:22:00.961Z,23.15
2022-09-25T21:32:11.882Z,26.95
2022-09-25T21:38:12.094Z,26.38
2022-09-25T21:47:36.343Z,30.48
2022-09-25T22:03:53.767Z,31.42
2022-09-25T22:06:52.961Z,32.60
2022-09-25T22:12:22.393Z,31.75
2022-09-25T22:15:47.746Z,30.08
2022-09-25T22:21:50.099Z,30.80
2022-09-25T22:25:18.873Z,28.75
2022-09-25T23:00:19.158Z,32.28
2022-09-25T23:03:07.690Z,31.30
2022-09-25T23:35:17.413Z,23.92
